sensor_id;sensor_type;location;lat;lon;timestamp;pressure;altitude;pressure_sealevel;temperature;humidity
16431;BME280;8325;49.284;7.238;2023-09-12T04:00:49;98245.91;;;17.75;100.00
16431;BME280;8325;49.284;7.238;2023-09-12T04:05:01;98243.38;;;17.68;100.00
16431;BME280;8325;49.284;7.238;2023-09-12T04:09:13;98242.78;;;17.66;100.00
16431;BME280;8325;49.284;7.238;2023-09-12T04:17:51;98245.53;;;17.59;100.00
16431;BME280;8325;49.284;7.238;2023-09-12T04:22:03;98236.56;;;17.60;100.00
16431;BME280;8325;49.284;7.238;2023-09-12T04:26:16;98221.72;;;17.47;100.00
16431;BME280;8325;49.284;7.238;2023-09-12T04:30:27;98220.47;;;17.50;100.00
16431;BME280;8325;49.284;7.238;2023-09-12T04:34:42;98220.47;;;17.50;100.00
16431;BME280;8325;49.284;7.238;2023-09-12T04:38:55;98230.91;;;17.45;100.00
16431;BME280;8325;49.284;7.238;2023-09-12T04:43:07;98239.84;;;17.44;100.00
16431;BME280;8325;49.284;7.238;2023-09-12T04:47:19;98253.06;;;17.44;100.00
16431;BME280;8325;49.284;7.238;2023-09-12T04:51:30;98270.50;;;17.45;100.00
16431;BME280;8325;49.284;7.238;2023-09-12T04:55:42;98283.03;;;17.49;100.00
16431;BME280;8325;49.284;7.238;2023-09-12T04:59:54;98269.50;;;17.58;100.00
16431;BME280;8325;49.284;7.238;2023-09-12T05:04:06;98260.75;;;17.45;100.00
16431;BME280;8325;49.284;7.238;2023-09-12T05:08:18;98272.09;;;17.34;100.00
16431;BME280;8325;49.284;7.238;2023-09-12T05:12:30;98276.28;;;17.23;100.00
16431;BME280;8325;49.284;7.238;2023-09-12T05:16:41;98265.41;;;17.32;100.00
16431;BME280;8325;49.284;7.238;2023-09-12T05:20:53;98267.00;;;17.33;100.00
16431;BME280;8325;49.284;7.238;2023-09-12T05:25:06;98265.88;;;17.29;100.00
16431;BME280;8325;49.284;7.238;2023-09-12T05:29:18;98263.06;;;17.23;100.00
16431;BME280;8325;49.284;7.238;2023-09-12T05:33:29;98266.91;;;17.28;100.00
16431;BME280;8325;49.284;7.238;2023-09-12T05:37:44;98277.66;;;17.26;100.00
16431;BME280;8325;49.284;7.238;2023-09-12T05:41:56;98284.03;;;17.37;100.00
16431;BME280;8325;49.284;7.238;2023-09-12T05:46:08;98281.25;;;17.32;100.00
16431;BME280;8325;49.284;7.238;2023-09-12T05:50:20;98277.38;;;17.34;100.00
16431;BME280;8325;49.284;7.238;2023-09-12T05:54:32;98268.19;;;17.37;100.00
16431;BME280;8325;49.284;7.238;2023-09-12T05:58:43;98282.25;;;17.49;100.00
16431;BME280;8325;49.284;7.238;2023-09-12T06:02:56;98288.22;;;17.56;100.00
16431;BME280;8325;49.284;7.238;2023-09-12T06:07:07;98279.06;;;17.59;100.00
16431;BME280;8325;49.284;7.238;2023-09-12T06:11:19;98288.38;;;17.73;100.00
16431;BME280;8325;49.284;7.238;2023-09-12T06:15:31;98290.81;;;17.75;100.00
16431;BME280;8325;49.284;7.238;2023-09-12T06:19:42;98297.75;;;17.87;100.00
16431;BME280;8325;49.284;7.238;2023-09-12T06:24:17;98294.94;;;17.70;100.00
16431;BME280;8325;49.284;7.238;2023-09-12T06:28:30;98293.06;;;17.89;100.00
16431;BME280;8325;49.284;7.238;2023-09-12T06:32:41;98287.53;;;17.91;100.00
16431;BME280;8325;49.284;7.238;2023-09-12T06:36:53;98279.41;;;18.04;100.00
16431;BME280;8325;49.284;7.238;2023-09-12T06:41:05;98296.16;;;17.98;100.00
16431;BME280;8325;49.284;7.238;2023-09-12T06:45:16;98303.44;;;18.26;100.00
16431;BME280;8325;49.284;7.238;2023-09-12T06:49:28;98314.44;;;21.25;100.00
16431;BME280;8325;49.284;7.238;2023-09-12T06:53:44;98318.09;;;23.22;91.88
16431;BME280;8325;49.284;7.238;2023-09-12T06:57:55;98311.44;;;21.97;98.76
16431;BME280;8325;49.284;7.238;2023-09-12T07:02:07;98306.47;;;21.47;100.00
16431;BME280;8325;49.284;7.238;2023-09-12T07:06:19;98307.78;;;22.41;97.30
16431;BME280;8325;49.284;7.238;2023-09-12T07:10:31;98326.09;;;22.69;95.38
16431;BME280;8325;49.284;7.238;2023-09-12T07:14:42;98318.69;;;22.82;95.18
16431;BME280;8325;49.284;7.238;2023-09-12T07:18:54;98327.72;;;22.81;95.63
16431;BME280;8325;49.284;7.238;2023-09-12T07:23:06;98326.13;;;22.80;96.65
16431;BME280;8325;49.284;7.238;2023-09-12T07:27:18;98329.44;;;23.02;95.15
16431;BME280;8325;49.284;7.238;2023-09-12T07:31:30;98324.47;;;23.26;95.47
16431;BME280;8325;49.284;7.238;2023-09-12T07:35:41;98329.06;;;23.51;95.06
16431;BME280;8325;49.284;7.238;2023-09-12T07:39:55;98331.22;;;23.54;94.42
16431;BME280;8325;49.284;7.238;2023-09-12T07:44:07;98329.63;;;23.58;95.10
16431;BME280;8325;49.284;7.238;2023-09-12T07:48:22;98321.66;;;23.69;95.33
16431;BME280;8325;49.284;7.238;2023-09-12T07:52:34;98319.56;;;23.81;94.76
16431;BME280;8325;49.284;7.238;2023-09-12T07:56:45;98329.41;;;23.85;94.31
16431;BME280;8325;49.284;7.238;2023-09-12T08:00:57;98323.81;;;23.92;94.48
16431;BME280;8325;49.284;7.238;2023-09-12T08:05:08;98332.88;;;23.71;95.36
16431;BME280;8325;49.284;7.238;2023-09-12T08:09:20;98349.06;;;23.49;95.52
16431;BME280;8325;49.284;7.238;2023-09-12T08:13:32;98352.53;;;23.44;97.55
16431;BME280;8325;49.284;7.238;2023-09-12T08:17:43;98359.41;;;23.35;98.16
16431;BME280;8325;49.284;7.238;2023-09-12T08:21:55;98354.06;;;23.25;98.60
16431;BME280;8325;49.284;7.238;2023-09-12T08:26:07;98356.66;;;23.09;100.00
16431;BME280;8325;49.284;7.238;2023-09-12T08:30:20;98355.22;;;22.91;100.00
16431;BME280;8325;49.284;7.238;2023-09-12T08:34:32;98354.34;;;22.81;100.00
16431;BME280;8325;49.284;7.238;2023-09-12T08:38:44;98347.34;;;22.64;100.00
16431;BME280;8325;49.284;7.238;2023-09-12T08:42:57;98344.41;;;22.66;100.00
16431;BME280;8325;49.284;7.238;2023-09-12T08:47:11;98354.28;;;22.70;100.00
16431;BME280;8325;49.284;7.238;2023-09-12T08:51:23;98351.06;;;23.11;100.00
16431;BME280;8325;49.284;7.238;2023-09-12T08:55:35;98341.84;;;23.34;100.00
16431;BME280;8325;49.284;7.238;2023-09-12T08:59:50;98344.56;;;23.49;100.00
16431;BME280;8325;49.284;7.238;2023-09-12T09:04:02;98360.09;;;23.83;99.75
16431;BME280;8325;49.284;7.238;2023-09-12T09:08:15;98357.97;;;23.85;98.63
16431;BME280;8325;49.284;7.238;2023-09-12T09:12:27;98358.47;;;23.72;98.84
16431;BME280;8325;49.284;7.238;2023-09-12T09:16:39;98356.56;;;23.67;100.00
16431;BME280;8325;49.284;7.238;2023-09-12T09:20:50;98351.31;;;23.93;100.00
16431;BME280;8325;49.284;7.238;2023-09-12T09:25:11;98353.69;;;24.20;100.00
16431;BME280;8325;49.284;7.238;2023-09-12T09:29:24;98349.72;;;24.17;98.69
16431;BME280;8325;49.284;7.238;2023-09-12T09:33:36;98345.69;;;24.20;99.33
16431;BME280;8325;49.284;7.238;2023-09-12T09:37:47;98353.69;;;24.40;100.00
16431;BME280;8325;49.284;7.238;2023-09-12T09:41:59;98356.34;;;24.76;98.54
16431;BME280;8325;49.284;7.238;2023-09-12T09:46:15;98343.22;;;24.95;97.82
16431;BME280;8325;49.284;7.238;2023-09-12T09:50:27;98336.78;;;25.01;97.36
16431;BME280;8325;49.284;7.238;2023-09-12T09:54:43;98333.84;;;24.92;95.65
16431;BME280;8325;49.284;7.238;2023-09-12T09:58:59;98331.97;;;24.98;96.04
16431;BME280;8325;49.284;7.238;2023-09-12T10:03:12;98325.00;;;25.02;95.18
16431;BME280;8325;49.284;7.238;2023-09-12T10:07:32;98332.69;;;25.24;95.52
16431;BME280;8325;49.284;7.238;2023-09-12T10:11:46;98336.38;;;25.33;93.92
16431;BME280;8325;49.284;7.238;2023-09-12T10:16:00;98340.06;;;25.47;94.01
16431;BME280;8325;49.284;7.238;2023-09-12T10:20:16;98333.88;;;25.52;91.79
16431;BME280;8325;49.284;7.238;2023-09-12T10:24:30;98326.66;;;25.53;91.99
16431;BME280;8325;49.284;7.238;2023-09-12T10:28:43;98322.78;;;25.74;93.36
16431;BME280;8325;49.284;7.238;2023-09-12T10:32:57;98313.78;;;25.99;92.78
16431;BME280;8325;49.284;7.238;2023-09-12T10:37:09;98313.69;;;26.09;89.68
16431;BME280;8325;49.284;7.238;2023-09-12T10:41:21;98313.03;;;26.23;90.76
16431;BME280;8325;49.284;7.238;2023-09-12T10:45:35;98309.16;;;26.39;87.74
16431;BME280;8325;49.284;7.238;2023-09-12T10:49:48;98311.75;;;26.44;88.43
16431;BME280;8325;49.284;7.238;2023-09-12T10:54:03;98311.88;;;26.63;87.40
16431;BME280;8325;49.284;7.238;2023-09-12T10:58:14;98313.34;;;26.74;86.33
16431;BME280;8325;49.284;7.238;2023-09-12T11:06:39;98308.00;;;26.74;87.98
16431;BME280;8325;49.284;7.238;2023-09-12T11:11:17;98312.56;;;26.74;87.76
16431;BME280;8325;49.284;7.238;2023-09-12T11:15:30;98305.19;;;27.08;85.74
16431;BME280;8325;49.284;7.238;2023-09-12T11:19:44;98310.59;;;27.27;84.09
16431;BME280;8325;49.284;7.238;2023-09-12T11:23:56;98303.28;;;27.33;82.88
16431;BME280;8325;49.284;7.238;2023-09-12T11:28:09;98301.63;;;27.37;82.26
16431;BME280;8325;49.284;7.238;2023-09-12T11:32:35;98306.75;;;27.52;83.36
16431;BME280;8325;49.284;7.238;2023-09-12T11:36:48;98300.88;;;27.69;80.38
16431;BME280;8325;49.284;7.238;2023-09-12T11:40:59;98298.91;;;27.75;79.06
16431;BME280;8325;49.284;7.238;2023-09-12T11:45:14;98299.88;;;27.84;77.86
16431;BME280;8325;49.284;7.238;2023-09-12T11:49:26;98291.44;;;27.91;78.37
16431;BME280;8325;49.284;7.238;2023-09-12T11:53:38;98287.28;;;27.98;77.05
16431;BME280;8325;49.284;7.238;2023-09-12T11:57:50;98283.84;;;28.12;77.31
16431;BME280;8325;49.284;7.238;2023-09-12T12:02:06;98288.91;;;28.13;77.00
16431;BME280;8325;49.284;7.238;2023-09-12T12:06:18;98287.13;;;28.22;76.70
16431;BME280;8325;49.284;7.238;2023-09-12T12:10:30;98289.56;;;28.38;76.92
16431;BME280;8325;49.284;7.238;2023-09-12T12:14:42;98290.47;;;28.47;74.20
16431;BME280;8325;49.284;7.238;2023-09-12T12:18:55;98286.53;;;28.58;73.84
16431;BME280;8325;49.284;7.238;2023-09-12T12:23:08;98283.81;;;28.72;73.63
16431;BME280;8325;49.284;7.238;2023-09-12T12:27:20;98278.75;;;28.71;69.92
16431;BME280;8325;49.284;7.238;2023-09-12T12:31:32;98280.66;;;28.70;71.66
16431;BME280;8325;49.284;7.238;2023-09-12T12:35:44;98276.88;;;28.57;71.09
16431;BME280;8325;49.284;7.238;2023-09-12T12:40:05;98280.25;;;28.49;70.65
16431;BME280;8325;49.284;7.238;2023-09-12T12:44:17;98277.06;;;28.61;70.68
16431;BME280;8325;49.284;7.238;2023-09-12T12:48:34;98274.16;;;28.85;69.13
16431;BME280;8325;49.284;7.238;2023-09-12T12:52:48;98270.78;;;28.65;70.04
16431;BME280;8325;49.284;7.238;2023-09-12T12:57:00;98267.31;;;28.65;70.07
16431;BME280;8325;49.284;7.238;2023-09-12T13:01:13;98260.84;;;28.66;69.48
16431;BME280;8325;49.284;7.238;2023-09-12T13:05:26;98262.53;;;28.76;68.59
16431;BME280;8325;49.284;7.238;2023-09-12T13:09:38;98250.38;;;28.78;69.33
16431;BME280;8325;49.284;7.238;2023-09-12T13:13:50;98241.19;;;28.93;69.83
16431;BME280;8325;49.284;7.238;2023-09-12T13:18:02;98238.22;;;29.08;69.82
16431;BME280;8325;49.284;7.238;2023-09-12T13:22:15;98241.97;;;29.21;68.09
16431;BME280;8325;49.284;7.238;2023-09-12T13:26:27;98235.53;;;29.31;67.62
16431;BME280;8325;49.284;7.238;2023-09-12T13:30:38;98231.25;;;29.07;66.76
16431;BME280;8325;49.284;7.238;2023-09-12T13:34:52;98234.53;;;29.04;68.82
16431;BME280;8325;49.284;7.238;2023-09-12T13:39:04;98222.44;;;29.16;68.18
16431;BME280;8325;49.284;7.238;2023-09-12T13:43:17;98229.25;;;28.99;65.20
16431;BME280;8325;49.284;7.238;2023-09-12T13:47:30;98220.41;;;28.85;68.54
16431;BME280;8325;49.284;7.238;2023-09-12T13:51:41;98229.56;;;28.84;69.15
16431;BME280;8325;49.284;7.238;2023-09-12T13:55:53;98223.50;;;28.92;69.25
16431;BME280;8325;49.284;7.238;2023-09-12T14:00:05;98231.38;;;28.88;67.73
16431;BME280;8325;49.284;7.238;2023-09-12T14:04:19;98223.31;;;28.88;67.96
16431;BME280;8325;49.284;7.238;2023-09-12T14:08:32;98220.88;;;29.14;67.73
16431;BME280;8325;49.284;7.238;2023-09-12T14:12:44;98212.53;;;29.02;68.50
16431;BME280;8325;49.284;7.238;2023-09-12T14:16:56;98204.34;;;28.57;65.21
16431;BME280;8325;49.284;7.238;2023-09-12T14:21:09;98198.03;;;28.34;67.09
16431;BME280;8325;49.284;7.238;2023-09-12T14:25:21;98196.28;;;28.43;66.48
16431;BME280;8325;49.284;7.238;2023-09-12T14:29:34;98184.09;;;28.32;68.29
16431;BME280;8325;49.284;7.238;2023-09-12T14:33:46;98182.06;;;28.43;69.16
16431;BME280;8325;49.284;7.238;2023-09-12T14:37:58;98168.97;;;28.78;68.65
16431;BME280;8325;49.284;7.238;2023-09-12T14:42:10;98152.59;;;29.02;66.93
16431;BME280;8325;49.284;7.238;2023-09-12T14:46:23;98150.59;;;29.07;65.94
16431;BME280;8325;49.284;7.238;2023-09-12T14:50:35;98146.28;;;29.06;64.26
16431;BME280;8325;49.284;7.238;2023-09-12T14:54:53;98155.19;;;29.07;63.71
16431;BME280;8325;49.284;7.238;2023-09-12T14:59:05;98143.03;;;28.96;63.17
16431;BME280;8325;49.284;7.238;2023-09-12T15:03:18;98144.25;;;28.89;64.19
16431;BME280;8325;49.284;7.238;2023-09-12T15:07:30;98147.22;;;28.88;64.42
16431;BME280;8325;49.284;7.238;2023-09-12T15:11:42;98146.13;;;28.66;63.08
16431;BME280;8325;49.284;7.238;2023-09-12T15:15:53;98146.31;;;28.56;63.85
16431;BME280;8325;49.284;7.238;2023-09-12T15:20:05;98138.69;;;28.36;64.40
16431;BME280;8325;49.284;7.238;2023-09-12T15:24:17;98135.47;;;28.20;66.01
16431;BME280;8325;49.284;7.238;2023-09-12T15:28:29;98134.50;;;28.16;65.89
16431;BME280;8325;49.284;7.238;2023-09-12T15:32:41;98137.78;;;27.99;64.72
16431;BME280;8325;49.284;7.238;2023-09-12T15:37:09;98143.84;;;27.91;65.67
16431;BME280;8325;49.284;7.238;2023-09-12T15:41:24;98141.94;;;27.77;67.09
16431;BME280;8325;49.284;7.238;2023-09-12T15:45:36;98137.88;;;27.61;67.93
16431;BME280;8325;49.284;7.238;2023-09-12T15:50:00;98140.84;;;27.46;68.34
16431;BME280;8325;49.284;7.238;2023-09-12T15:54:12;98149.13;;;27.30;69.42
16431;BME280;8325;49.284;7.238;2023-09-12T15:58:23;98137.78;;;27.20;70.82
16431;BME280;8325;49.284;7.238;2023-09-12T16:02:39;98156.44;;;27.06;73.34
16431;BME280;8325;49.284;7.238;2023-09-12T16:06:51;98151.03;;;26.92;74.64
16431;BME280;8325;49.284;7.238;2023-09-12T16:11:03;98157.41;;;26.77;74.50
16431;BME280;8325;49.284;7.238;2023-09-12T16:15:14;98159.13;;;26.68;75.10
16431;BME280;8325;49.284;7.238;2023-09-12T16:19:26;98173.47;;;26.58;77.14
16431;BME280;8325;49.284;7.238;2023-09-12T16:23:38;98168.22;;;26.48;77.65
16431;BME280;8325;49.284;7.238;2023-09-12T16:27:50;98166.44;;;26.38;78.96
16431;BME280;8325;49.284;7.238;2023-09-12T16:32:02;98163.38;;;26.26;80.09
16431;BME280;8325;49.284;7.238;2023-09-12T16:36:15;98160.81;;;26.16;82.05
16431;BME280;8325;49.284;7.238;2023-09-12T16:40:27;98150.00;;;26.02;84.88
16431;BME280;8325;49.284;7.238;2023-09-12T16:44:38;98152.78;;;25.92;87.10
16431;BME280;8325;49.284;7.238;2023-09-12T16:48:52;98144.84;;;25.82;88.96
16431;BME280;8325;49.284;7.238;2023-09-12T16:53:04;98139.84;;;25.70;90.23
16431;BME280;8325;49.284;7.238;2023-09-12T16:57:15;98151.78;;;25.54;91.76
16431;BME280;8325;49.284;7.238;2023-09-12T17:01:27;98230.00;;;25.35;93.95
16431;BME280;8325;49.284;7.238;2023-09-12T17:05:39;98227.16;;;25.11;86.10
16431;BME280;8325;49.284;7.238;2023-09-12T17:09:50;98223.47;;;25.02;80.94
16431;BME280;8325;49.284;7.238;2023-09-12T17:14:03;98242.84;;;24.78;82.18
16431;BME280;8325;49.284;7.238;2023-09-12T17:18:14;98246.91;;;24.61;82.14
16431;BME280;8325;49.284;7.238;2023-09-12T17:22:26;98233.59;;;24.35;80.30
16431;BME280;8325;49.284;7.238;2023-09-12T17:26:38;98231.00;;;24.09;80.22
16431;BME280;8325;49.284;7.238;2023-09-12T17:30:49;98225.66;;;23.89;83.09
16431;BME280;8325;49.284;7.238;2023-09-12T17:35:02;98226.75;;;23.83;88.63
16431;BME280;8325;49.284;7.238;2023-09-12T17:39:14;98223.25;;;23.67;93.01
16431;BME280;8325;49.284;7.238;2023-09-12T17:43:26;98205.66;;;23.46;97.81
16431;BME280;8325;49.284;7.238;2023-09-12T17:47:37;98196.34;;;23.28;100.00
16431;BME280;8325;49.284;7.238;2023-09-12T17:51:49;98199.50;;;23.04;100.00
16431;BME280;8325;49.284;7.238;2023-09-12T17:56:00;98214.84;;;22.87;100.00
16431;BME280;8325;49.284;7.238;2023-09-12T18:00:12;98245.97;;;22.76;100.00
16431;BME280;8325;49.284;7.238;2023-09-12T18:04:25;98279.19;;;22.63;100.00
16431;BME280;8325;49.284;7.238;2023-09-12T18:08:37;98293.38;;;22.32;100.00
16431;BME280;8325;49.284;7.238;2023-09-12T18:12:49;98313.97;;;22.14;100.00
16431;BME280;8325;49.284;7.238;2023-09-12T18:17:00;98318.69;;;22.07;100.00
16431;BME280;8325;49.284;7.238;2023-09-12T18:21:12;98329.25;;;21.97;100.00
16431;BME280;8325;49.284;7.238;2023-09-12T18:25:24;98334.22;;;21.88;100.00
16431;BME280;8325;49.284;7.238;2023-09-12T18:29:36;98341.63;;;21.81;100.00
16431;BME280;8325;49.284;7.238;2023-09-12T18:33:47;98352.66;;;21.68;100.00
16431;BME280;8325;49.284;7.238;2023-09-12T18:37:59;98357.13;;;21.62;100.00
16431;BME280;8325;49.284;7.238;2023-09-12T18:42:13;98355.69;;;21.54;100.00
16431;BME280;8325;49.284;7.238;2023-09-12T18:46:25;98364.16;;;21.51;100.00
16431;BME280;8325;49.284;7.238;2023-09-12T18:50:37;98358.44;;;21.37;100.00
16431;BME280;8325;49.284;7.238;2023-09-12T18:54:48;98355.63;;;21.27;100.00
16431;BME280;8325;49.284;7.238;2023-09-12T18:59:00;98365.06;;;21.18;100.00
16431;BME280;8325;49.284;7.238;2023-09-12T19:03:12;98362.88;;;21.10;100.00
16431;BME280;8325;49.284;7.238;2023-09-12T19:07:27;98372.97;;;20.91;100.00
16431;BME280;8325;49.284;7.238;2023-09-12T19:11:38;98392.41;;;20.97;100.00
16431;BME280;8325;49.284;7.238;2023-09-12T19:15:50;98394.94;;;20.86;100.00
16431;BME280;8325;49.284;7.238;2023-09-12T19:20:02;98398.50;;;20.75;100.00
16431;BME280;8325;49.284;7.238;2023-09-12T19:24:15;98405.16;;;20.78;100.00
16431;BME280;8325;49.284;7.238;2023-09-12T19:28:27;98418.13;;;20.74;100.00
16431;BME280;8325;49.284;7.238;2023-09-12T19:32:39;98417.50;;;20.67;100.00
16431;BME280;8325;49.284;7.238;2023-09-12T19:36:51;98420.72;;;20.69;100.00
16431;BME280;8325;49.284;7.238;2023-09-12T19:41:04;98415.06;;;20.65;100.00
16431;BME280;8325;49.284;7.238;2023-09-12T19:45:15;98425.03;;;20.58;100.00
16431;BME280;8325;49.284;7.238;2023-09-12T19:49:27;98433.25;;;20.57;100.00
16431;BME280;8325;49.284;7.238;2023-09-12T19:53:39;98436.13;;;20.55;100.00
16431;BME280;8325;49.284;7.238;2023-09-12T19:57:50;98443.06;;;20.73;100.00
16431;BME280;8325;49.284;7.238;2023-09-12T20:02:02;98432.41;;;20.39;100.00
16431;BME280;8325;49.284;7.238;2023-09-12T20:06:15;98436.59;;;20.35;100.00
16431;BME280;8325;49.284;7.238;2023-09-12T20:10:26;98439.94;;;20.14;100.00
16431;BME280;8325;49.284;7.238;2023-09-12T20:14:38;98451.50;;;20.08;100.00
16431;BME280;8325;49.284;7.238;2023-09-12T20:18:50;98454.69;;;20.10;100.00
16431;BME280;8325;49.284;7.238;2023-09-12T20:23:02;98438.63;;;19.99;100.00
16431;BME280;8325;49.284;7.238;2023-09-12T20:27:14;98457.13;;;20.11;100.00
16431;BME280;8325;49.284;7.238;2023-09-12T20:31:25;98455.16;;;20.07;100.00
16431;BME280;8325;49.284;7.238;2023-09-12T20:35:37;98454.41;;;19.94;100.00
16431;BME280;8325;49.284;7.238;2023-09-12T20:39:49;98456.22;;;20.06;100.00
16431;BME280;8325;49.284;7.238;2023-09-12T20:44:00;98465.00;;;19.94;100.00
16431;BME280;8325;49.284;7.238;2023-09-12T20:48:12;98462.66;;;19.81;100.00
16431;BME280;8325;49.284;7.238;2023-09-12T20:52:24;98461.72;;;19.87;100.00
16431;BME280;8325;49.284;7.238;2023-09-12T20:56:39;98458.16;;;19.82;100.00
16431;BME280;8325;49.284;7.238;2023-09-12T21:00:51;98464.28;;;19.70;100.00
16431;BME280;8325;49.284;7.238;2023-09-12T21:05:03;98476.41;;;19.66;100.00
16431;BME280;8325;49.284;7.238;2023-09-12T21:09:16;98476.16;;;19.56;100.00
16431;BME280;8325;49.284;7.238;2023-09-12T21:13:27;98470.56;;;19.41;100.00
16431;BME280;8325;49.284;7.238;2023-09-12T21:17:39;98474.94;;;19.35;100.00
16431;BME280;8325;49.284;7.238;2023-09-12T21:21:51;98472.63;;;19.27;100.00
16431;BME280;8325;49.284;7.238;2023-09-12T21:26:03;98458.84;;;19.25;100.00
